Time;durP1;ratioP1;P1;durP2;ratioP2;P2;SDS_P1;SDS_P2;PMS_P1;PMS_P2;Temp;Humidity;BMP_temperature;BMP_pressure;BME280_temperature;BME280_humidity;BME280_pressure;Samples;Min_cycle;Max_cycle;Signal;HPM_P1;HPM_P2
2022/12/05 00:01:28;;;;;;;12.45;8.43;;;3.60;96.20;;;;;;4957406;29;20194;-66
2022/12/05 00:03:58;;;;;;;11.57;8.23;;;3.60;96.70;;;;;;4956665;29;20193;-66
2022/12/05 00:06:27;;;;;;;11.68;8.35;;;3.60;96.90;;;;;;4957068;29;20273;-66
2022/12/05 00:08:57;;;;;;;11.73;7.57;;;3.70;97.00;;;;;;4956795;29;20649;-66
2022/12/05 00:11:26;;;;;;;15.93;10.15;;;3.70;97.00;;;;;;4957395;29;20194;-66
2022/12/05 00:13:57;;;;;;;14.23;8.30;;;3.70;96.90;;;;;;4956225;29;20210;-66
2022/12/05 00:16:28;;;;;;;14.57;8.80;;;3.60;96.80;;;;;;4938321;29;20198;-66
2022/12/05 00:18:59;;;;;;;12.30;8.20;;;3.70;97.20;;;;;;4941888;29;20194;-66
2022/12/05 00:21:28;;;;;;;15.05;8.52;;;3.80;97.10;;;;;;4957056;29;20201;-66
2022/12/05 00:23:58;;;;;;;13.68;9.07;;;3.70;97.00;;;;;;4956445;29;20667;-66
2022/12/05 00:26:27;;;;;;;12.75;8.85;;;3.80;97.10;;;;;;4956777;29;20201;-66
2022/12/05 00:28:55;;;;;;;13.02;7.85;;;3.90;97.00;;;;;;4956328;29;20221;-66
2022/12/05 00:31:24;;;;;;;11.95;6.95;;;3.90;96.80;;;;;;4956340;28;20232;-66
2022/12/05 00:33:53;;;;;;;13.88;9.13;;;4.00;95.90;;;;;;4955509;29;20223;-66
2022/12/05 00:36:23;;;;;;;14.85;8.52;;;3.90;95.90;;;;;;4956904;29;20216;-66
2022/12/05 00:38:51;;;;;;;12.73;9.07;;;3.90;96.20;;;;;;4956348;29;20190;-66
2022/12/05 00:41:22;;;;;;;11.32;7.60;;;3.80;96.10;;;;;;4956458;29;20278;-66
2022/12/05 00:43:50;;;;;;;12.35;8.57;;;3.70;96.30;;;;;;4955839;29;20190;-66
2022/12/05 00:46:22;;;;;;;12.05;7.70;;;3.70;96.30;;;;;;4956413;29;20197;-66
2022/12/05 00:48:52;;;;;;;12.50;7.90;;;3.70;96.30;;;;;;4955869;29;20216;-66
2022/12/05 00:51:21;;;;;;;10.20;7.40;;;3.80;96.50;;;;;;4956152;29;20197;-66
2022/12/05 00:53:49;;;;;;;12.38;7.28;;;3.80;96.60;;;;;;4955966;29;20304;-66
2022/12/05 00:56:28;;;;;;;10.43;7.38;;;3.80;96.50;;;;;;4956174;29;20193;-66
2022/12/05 00:58:57;;;;;;;10.55;7.70;;;3.90;96.60;;;;;;4955821;29;20716;-66
2022/12/05 01:01:27;;;;;;;9.20;7.15;;;3.90;96.30;;;;;;4955928;29;20204;-66
2022/12/05 01:03:57;;;;;;;9.20;7.10;;;3.90;96.40;;;;;;4954838;29;20201;-66
2022/12/05 01:06:25;;;;;;;10.23;7.60;;;4.00;96.40;;;;;;4955751;29;20281;-66
2022/12/05 01:08:54;;;;;;;12.55;8.00;;;4.00;96.10;;;;;;4955731;29;20221;-66
2022/12/05 01:11:24;;;;;;;10.25;6.82;;;4.10;96.00;;;;;;4955134;29;20194;-66
2022/12/05 01:13:56;;;;;;;12.80;8.63;;;3.90;95.60;;;;;;4955593;29;20232;-66
2022/12/05 01:16:26;;;;;;;13.48;8.00;;;3.90;95.60;;;;;;4956362;29;20189;-66
2022/12/05 01:18:54;;;;;;;13.05;8.05;;;3.90;95.80;;;;;;4955566;29;20182;-66
2022/12/05 01:21:22;;;;;;;10.98;8.40;;;3.90;96.00;;;;;;4956032;29;20221;-66
2022/12/05 01:23:52;;;;;;;11.25;8.30;;;3.90;96.20;;;;;;4955678;29;20196;-66
2022/12/05 01:26:24;;;;;;;17.02;8.43;;;4.00;96.20;;;;;;4955979;29;20190;-66
2022/12/05 01:28:52;;;;;;;13.65;9.20;;;4.00;96.30;;;;;;4955160;29;20276;-66
2022/12/05 01:31:24;;;;;;;13.90;8.02;;;4.00;96.20;;;;;;4955907;29;20198;-66
2022/12/05 01:33:53;;;;;;;9.40;7.38;;;4.10;96.00;;;;;;4955207;29;20293;-66
2022/12/05 01:36:21;;;;;;;15.20;8.38;;;4.00;95.80;;;;;;4955823;29;20544;-66
2022/12/05 01:38:51;;;;;;;11.52;7.43;;;4.00;96.00;;;;;;4955289;29;20205;-66
2022/12/05 01:41:23;;;;;;;12.32;8.63;;;4.00;96.20;;;;;;4955499;29;20248;-66
2022/12/05 01:44:04;;;;;;;13.05;7.57;;;4.10;96.30;;;;;;4954657;28;20201;-66
2022/12/05 01:46:34;;;;;;;10.32;7.43;;;4.10;96.40;;;;;;4955348;29;20194;-66
2022/12/05 01:49:08;;;;;;;11.23;7.10;;;4.10;96.30;;;;;;4954813;29;20287;-66
2022/12/05 01:51:38;;;;;;;9.05;6.22;;;4.10;96.20;;;;;;4955153;29;20204;-66
2022/12/05 01:54:10;;;;;;;10.60;7.03;;;4.10;96.00;;;;;;4954448;29;20692;-66
2022/12/05 01:56:44;;;;;;;7.65;5.20;;;4.20;95.90;;;;;;4955024;29;20197;-66
2022/12/05 01:59:13;;;;;;;8.60;4.95;;;4.20;95.80;;;;;;4955001;29;20189;-66
2022/12/05 02:01:41;;;;;;;9.05;6.63;;;4.20;95.70;;;;;;4955260;29;20225;-66
2022/12/05 02:04:09;;;;;;;9.90;6.30;;;4.20;95.40;;;;;;4954081;29;20301;-66
2022/12/05 02:06:37;;;;;;;7.80;5.70;;;4.10;95.40;;;;;;4955096;29;20202;-66
2022/12/05 02:09:05;;;;;;;7.38;5.38;;;4.20;95.40;;;;;;4955029;29;20190;-66
2022/12/05 02:11:34;;;;;;;8.48;6.07;;;4.20;95.20;;;;;;4954994;29;20648;-66
2022/12/05 02:14:23;;;;;;;8.20;6.25;;;4.20;95.10;;;;;;4954226;29;20213;-66
2022/12/05 02:17:00;;;;;;;9.02;6.60;;;4.20;95.20;;;;;;4955044;29;20197;-66
2022/12/05 02:19:59;;;;;;;9.52;6.32;;;4.20;95.30;;;;;;4954302;29;20219;-66
2022/12/05 02:22:54;;;;;;;8.50;5.80;;;4.20;95.30;;;;;;4912805;29;20588;-66
2022/12/05 02:26:14;;;;;;;7.95;5.10;;;4.20;95.40;;;;;;4954704;29;20189;-66
2022/12/05 02:29:11;;;;;;;7.13;5.63;;;4.20;95.40;;;;;;4935808;29;20341;-65
2022/12/05 02:31:47;;;;;;;9.30;6.57;;;4.20;95.30;;;;;;4944024;29;20193;-64
2022/12/05 02:34:21;;;;;;;8.25;6.00;;;4.20;95.30;;;;;;4954551;29;20232;-65
2022/12/05 02:36:55;;;;;;;8.82;6.45;;;4.20;95.40;;;;;;4954285;29;20617;-65
2022/12/05 02:39:29;;;;;;;6.70;4.93;;;4.20;95.40;;;;;;4954611;29;20204;-64
2022/12/05 02:42:05;;;;;;;9.90;6.65;;;4.20;95.50;;;;;;4954245;29;20203;-64
2022/12/05 02:44:38;;;;;;;8.65;5.95;;;4.20;95.30;;;;;;4954527;29;20719;-65
2022/12/05 02:47:09;;;;;;;9.07;6.07;;;4.20;95.20;;;;;;4953691;29;20190;-65
2022/12/05 02:49:37;;;;;;;7.80;5.93;;;4.20;95.30;;;;;;4954403;29;20212;-65
2022/12/05 02:52:13;;;;;;;7.07;5.93;;;4.20;95.40;;;;;;4953873;29;20216;-64
2022/12/05 02:54:48;;;;;;;8.18;6.15;;;4.30;95.50;;;;;;4953856;28;20221;-65
2022/12/05 02:57:18;;;;;;;6.47;4.95;;;4.20;95.40;;;;;;4953499;29;20278;-64
2022/12/05 02:59:46;;;;;;;7.65;5.68;;;4.20;95.10;;;;;;4953942;29;20289;-64
2022/12/05 03:02:26;;;;;;;9.20;6.53;;;4.20;95.00;;;;;;4954049;29;20237;-64
2022/12/05 03:04:56;;;;;;;9.05;6.40;;;4.10;95.20;;;;;;4953829;29;20229;-65
2022/12/05 03:07:24;;;;;;;7.43;5.78;;;4.10;95.50;;;;;;4954351;29;20205;-65
2022/12/05 03:09:56;;;;;;;8.85;6.22;;;4.10;95.60;;;;;;4953136;29;20208;-64
2022/12/05 03:12:28;;;;;;;8.05;5.63;;;4.20;96.00;;;;;;4954011;29;20200;-64
2022/12/05 03:15:04;;;;;;;8.65;5.88;;;4.20;95.60;;;;;;4954379;29;20236;-64
2022/12/05 03:17:37;;;;;;;7.60;5.57;;;4.20;95.50;;;;;;4953684;29;20200;-64
2022/12/05 03:20:07;;;;;;;7.13;5.75;;;4.30;95.50;;;;;;4953700;29;20649;-65
2022/12/05 03:22:40;;;;;;;9.60;6.57;;;4.30;95.30;;;;;;4954245;29;20229;-64
2022/12/05 03:25:09;;;;;;;8.98;6.40;;;4.30;95.20;;;;;;4953706;29;20556;-65
2022/12/05 03:27:46;;;;;;;6.93;5.55;;;4.30;95.10;;;;;;4953732;29;20246;-64
2022/12/05 03:30:16;;;;;;;8.15;6.05;;;4.30;94.80;;;;;;4953575;29;20193;-65
2022/12/05 03:32:52;;;;;;;8.85;5.47;;;4.20;94.90;;;;;;4953863;29;20653;-65
2022/12/05 03:35:24;;;;;;;12.15;6.15;;;4.20;94.90;;;;;;4953707;29;20580;-65
2022/12/05 03:37:56;;;;;;;7.88;5.88;;;4.20;94.90;;;;;;4954083;29;20241;-64
2022/12/05 03:40:32;;;;;;;7.78;6.00;;;4.20;95.10;;;;;;4953610;29;20196;-65
2022/12/05 03:43:07;;;;;;;8.35;6.07;;;4.20;95.10;;;;;;4953730;29;20240;-64
2022/12/05 03:45:44;;;;;;;7.30;6.03;;;4.20;95.10;;;;;;4953383;29;20359;-65
2022/12/05 03:48:28;;;;;;;9.18;6.85;;;4.10;95.10;;;;;;4953813;29;20243;-65
2022/12/05 03:50:58;;;;;;;7.80;6.53;;;4.10;95.10;;;;;;4953852;29;20206;-65
2022/12/05 03:53:29;;;;;;;9.57;6.13;;;4.10;95.10;;;;;;4953703;29;20237;-65
2022/12/05 03:56:03;;;;;;;8.10;5.65;;;4.10;95.20;;;;;;4952833;29;20213;-64
2022/12/05 03:58:35;;;;;;;8.95;6.88;;;4.10;95.20;;;;;;4953876;29;20213;-64
2022/12/05 04:01:06;;;;;;;7.93;5.70;;;4.00;95.20;;;;;;4953177;29;20190;-64
2022/12/05 04:03:40;;;;;;;8.70;6.20;;;4.00;95.20;;;;;;4954274;29;20641;-65
2022/12/05 04:06:17;;;;;;;8.45;6.20;;;4.00;95.40;;;;;;4953977;28;20244;-65
2022/12/05 04:08:50;;;;;;;11.57;6.78;;;3.90;95.50;;;;;;4957396;29;20322;-65
2022/12/05 04:11:22;;;;;;;8.43;6.25;;;4.00;95.50;;;;;;4956503;29;20208;-65
2022/12/05 04:13:52;;;;;;;7.88;5.75;;;4.00;95.40;;;;;;4957271;29;20694;-64
2022/12/05 04:19:19;;;;;;;8.77;6.68;;;3.80;95.60;;;;;;4955098;28;20200;-64
2022/12/05 04:21:49;;;;;;;10.65;6.82;;;3.80;95.60;;;;;;4955244;29;20196;-65
2022/12/05 04:27:12;;;;;;;9.80;6.07;;;3.60;96.10;;;;;;4949619;29;20197;-64
2022/12/05 04:29:46;;;;;;;9.80;6.43;;;3.50;96.00;;;;;;4954721;29;20213;-64
2022/12/05 04:32:14;;;;;;;10.88;6.75;;;3.50;96.30;;;;;;4955733;29;20189;-65
2022/12/05 04:34:50;;;;;;;10.30;7.47;;;3.40;96.40;;;;;;4955291;29;20293;-64
2022/12/05 04:37:22;;;;;;;10.13;6.78;;;3.40;96.50;;;;;;4953371;29;20189;-64
2022/12/05 04:39:56;;;;;;;9.50;6.93;;;3.40;96.70;;;;;;4955776;29;20277;-65
2022/12/05 04:42:29;;;;;;;10.70;6.95;;;3.40;96.60;;;;;;4955982;29;20182;-65
2022/12/05 04:45:05;;;;;;;10.02;6.72;;;3.50;96.70;;;;;;4955558;29;20197;-64
2022/12/05 04:47:37;;;;;;;9.70;6.45;;;3.50;96.80;;;;;;4936688;29;20182;-65
2022/12/05 04:50:08;;;;;;;9.07;5.80;;;3.60;96.70;;;;;;4944269;29;20685;-65
2022/12/05 04:52:36;;;;;;;11.27;8.15;;;3.60;96.60;;;;;;4955699;29;20202;-64
2022/12/05 04:55:08;;;;;;;9.73;6.63;;;3.70;96.50;;;;;;4955092;29;20222;-64
2022/12/05 04:57:59;;;;;;;13.65;7.45;;;3.70;96.30;;;;;;4954997;29;20194;-65
2022/12/05 05:00:30;;;;;;;10.27;6.57;;;3.70;96.80;;;;;;4955040;29;20388;-64
2022/12/05 05:03:07;;;;;;;11.57;7.18;;;3.80;96.50;;;;;;4955896;29;20606;-64
2022/12/05 05:05:39;;;;;;;9.85;8.20;;;3.70;96.70;;;;;;4954717;29;20248;-65
2022/12/05 05:08:17;;;;;;;12.52;9.10;;;3.70;96.70;;;;;;4955280;29;20665;-64
2022/12/05 05:10:52;;;;;;;12.43;8.68;;;3.80;96.60;;;;;;4954670;29;20200;-65
2022/12/05 05:13:24;;;;;;;13.15;8.85;;;3.90;96.20;;;;;;4955583;29;20197;-64
2022/12/05 05:15:52;;;;;;;13.40;7.35;;;3.90;96.20;;;;;;4954384;29;20298;-64
2022/12/05 05:18:22;;;;;;;10.30;6.63;;;3.80;96.30;;;;;;4954560;28;20200;-65
2022/12/05 05:20:51;;;;;;;11.98;8.18;;;3.80;96.50;;;;;;4954867;29;20559;-65
2022/12/05 05:23:20;;;;;;;10.05;6.95;;;3.80;96.60;;;;;;4955423;29;20206;-65
2022/12/05 05:25:53;;;;;;;8.00;6.53;;;3.80;96.50;;;;;;4954635;29;20286;-65
2022/12/05 05:28:20;;;;;;;11.73;7.60;;;3.90;96.70;;;;;;4954338;29;20683;-65
2022/12/05 05:30:47;;;;;;;10.88;7.65;;;3.90;96.60;;;;;;4954427;29;20284;-64
2022/12/05 05:33:16;;;;;;;12.60;9.52;;;4.00;96.60;;;;;;4955427;29;20204;-65
2022/12/05 05:35:45;;;;;;;17.00;10.52;;;4.10;96.60;;;;;;4955514;29;20293;-64
2022/12/05 05:38:14;;;;;;;14.02;9.25;;;4.10;96.30;;;;;;4955276;29;20305;-65
2022/12/05 05:40:41;;;;;;;10.73;6.43;;;4.10;96.20;;;;;;4956001;29;20193;-64
2022/12/05 05:43:09;;;;;;;10.75;7.30;;;4.00;96.20;;;;;;4955184;29;20672;-64
2022/12/05 05:45:37;;;;;;;11.73;8.18;;;3.90;96.50;;;;;;4955639;29;20186;-64
2022/12/05 05:48:07;;;;;;;8.40;6.57;;;3.90;96.70;;;;;;4955701;29;20289;-64
2022/12/05 05:50:34;;;;;;;15.82;10.80;;;3.90;96.70;;;;;;4943296;28;20194;-64
2022/12/05 05:53:01;;;;;;;14.43;9.02;;;3.80;96.70;;;;;;4930056;29;20602;-64
2022/12/05 05:55:30;;;;;;;13.15;9.25;;;3.80;96.80;;;;;;4946411;29;20696;-64
2022/12/05 05:57:57;;;;;;;14.88;10.48;;;3.70;97.00;;;;;;4949052;29;20581;-64
2022/12/05 06:00:25;;;;;;;12.20;7.72;;;3.70;97.30;;;;;;4951655;29;20418;-65
2022/12/05 06:02:52;;;;;;;9.48;6.78;;;3.70;97.20;;;;;;4951025;29;20197;-64
2022/12/05 06:05:19;;;;;;;13.13;8.07;;;3.70;97.40;;;;;;4950891;29;20237;-65
2022/12/05 06:07:47;;;;;;;7.90;7.10;;;3.70;97.40;;;;;;4950008;29;20285;-64
2022/12/05 06:10:14;;;;;;;10.38;7.43;;;3.70;97.50;;;;;;4951808;29;20201;-65
2022/12/05 06:12:42;;;;;;;10.05;7.57;;;3.80;97.40;;;;;;4952876;29;20572;-65
2022/12/05 06:15:12;;;;;;;9.88;6.53;;;3.90;97.40;;;;;;4952887;29;20217;-65
2022/12/05 06:17:40;;;;;;;9.98;7.32;;;3.90;97.40;;;;;;4952734;29;20298;-64
2022/12/05 06:20:09;;;;;;;13.10;7.07;;;3.90;97.50;;;;;;4953209;29;20383;-65
2022/12/05 06:22:36;;;;;;;9.45;7.75;;;3.90;97.50;;;;;;4953010;29;20190;-64
2022/12/05 06:25:04;;;;;;;9.02;6.30;;;3.90;97.70;;;;;;4952527;29;20219;-64
2022/12/05 06:27:31;;;;;;;9.30;6.35;;;3.90;97.80;;;;;;4952771;29;20186;-64
2022/12/05 06:30:00;;;;;;;13.38;7.65;;;3.90;97.80;;;;;;4952231;28;20201;-65
2022/12/05 06:32:29;;;;;;;10.40;7.85;;;3.90;97.80;;;;;;4952184;29;20196;-65
2022/12/05 06:34:56;;;;;;;9.23;7.40;;;3.90;97.70;;;;;;4951563;29;20193;-64
2022/12/05 06:37:23;;;;;;;9.35;7.35;;;3.90;97.70;;;;;;4950892;29;20201;-64
2022/12/05 06:39:52;;;;;;;9.93;6.20;;;3.90;97.80;;;;;;4953308;29;20569;-65
2022/12/05 06:42:21;;;;;;;9.63;7.43;;;3.90;97.80;;;;;;4952807;29;20224;-64
2022/12/05 06:44:48;;;;;;;10.15;7.40;;;3.80;98.00;;;;;;4945057;28;20216;-64
2022/12/05 06:47:16;;;;;;;8.80;6.90;;;3.70;98.50;;;;;;4951288;29;20193;-65
2022/12/05 06:49:46;;;;;;;11.73;7.70;;;3.70;98.80;;;;;;4952871;29;20572;-64
2022/12/05 06:52:13;;;;;;;8.90;6.15;;;3.70;99.00;;;;;;4950673;29;20657;-64
2022/12/05 06:54:40;;;;;;;14.95;7.93;;;3.80;99.00;;;;;;4952731;29;20201;-65
2022/12/05 06:57:08;;;;;;;10.88;7.93;;;3.90;98.90;;;;;;4952947;29;20252;-64
2022/12/05 06:59:38;;;;;;;12.10;8.60;;;4.00;98.80;;;;;;4952476;29;20196;-65
2022/12/05 07:02:15;;;;;;;13.23;8.73;;;4.00;98.70;;;;;;4948783;29;20190;-64
2022/12/05 07:04:42;;;;;;;10.10;6.75;;;4.10;98.60;;;;;;4952006;29;20311;-64
2022/12/05 07:07:14;;;;;;;10.10;7.80;;;4.20;98.50;;;;;;4952645;29;20193;-65
2022/12/05 07:09:52;;;;;;;11.02;7.57;;;4.30;98.40;;;;;;4948968;29;20692;-64
2022/12/05 07:12:20;;;;;;;9.85;8.13;;;4.30;98.20;;;;;;4952650;29;20201;-64
2022/12/05 07:14:51;;;;;;;10.95;7.68;;;4.40;98.00;;;;;;4949519;29;20276;-64
2022/12/05 07:17:22;;;;;;;10.32;7.07;;;4.50;97.90;;;;;;4947394;29;20190;-65
2022/12/05 07:19:50;;;;;;;11.70;8.23;;;4.60;97.80;;;;;;4945413;29;20182;-64
2022/12/05 07:22:18;;;;;;;10.55;7.65;;;4.70;97.70;;;;;;4949085;29;20198;-64
2022/12/05 07:24:45;;;;;;;9.23;6.68;;;4.70;97.50;;;;;;4951620;29;20560;-65
2022/12/05 07:27:14;;;;;;;9.80;6.90;;;4.80;97.50;;;;;;4952420;29;20194;-65
2022/12/05 07:29:41;;;;;;;9.00;6.93;;;4.80;97.30;;;;;;4951008;29;20197;-64
2022/12/05 07:32:08;;;;;;;9.98;6.80;;;4.90;97.30;;;;;;4952119;29;20292;-64
2022/12/05 07:34:38;;;;;;;11.98;7.03;;;4.90;97.10;;;;;;4951962;29;20197;-65
2022/12/05 07:37:06;;;;;;;12.40;6.55;;;5.00;97.10;;;;;;4950121;28;20225;-64
2022/12/05 07:39:33;;;;;;;10.05;8.23;;;5.10;97.00;;;;;;4948661;29;20252;-64
2022/12/05 07:42:00;;;;;;;12.02;6.97;;;5.10;96.80;;;;;;4953779;28;20197;-66
2022/12/05 07:44:27;;;;;;;10.00;6.97;;;5.10;96.40;;;;;;4955262;29;20198;-65
2022/12/05 07:46:54;;;;;;;10.15;7.05;;;5.10;96.30;;;;;;4955267;29;20190;-66
2022/12/05 07:49:22;;;;;;;9.48;7.05;;;5.00;96.30;;;;;;4949321;29;20194;-65
2022/12/05 07:51:52;;;;;;;8.70;6.40;;;5.00;96.50;;;;;;4954012;29;20196;-65
2022/12/05 07:54:19;;;;;;;12.50;6.20;;;5.00;96.50;;;;;;4948385;29;20198;-65
2022/12/05 07:56:46;;;;;;;10.25;6.75;;;5.00;96.90;;;;;;4957509;29;20677;-66
2022/12/05 07:59:13;;;;;;;10.15;5.80;;;5.00;96.60;;;;;;4957037;29;20190;-66
2022/12/05 08:01:41;;;;;;;10.43;7.47;;;5.00;96.80;;;;;;4956495;29;20198;-66
2022/12/05 08:04:08;;;;;;;9.80;6.10;;;4.90;96.90;;;;;;4937959;29;20229;-66
2022/12/05 08:06:35;;;;;;;8.55;6.70;;;4.90;97.20;;;;;;4952998;29;20190;-66
2022/12/05 08:09:04;;;;;;;10.45;6.72;;;4.80;97.40;;;;;;4957652;29;20201;-66
2022/12/05 08:11:34;;;;;;;8.77;6.63;;;4.80;97.50;;;;;;4957269;29;20194;-65
2022/12/05 08:14:03;;;;;;;8.60;5.40;;;4.80;97.50;;;;;;4957655;29;20198;-65
2022/12/05 08:16:31;;;;;;;7.88;6.57;;;4.80;97.60;;;;;;4957756;29;20244;-65
2022/12/05 08:19:03;;;;;;;7.72;6.20;;;4.80;97.70;;;;;;4957567;29;20189;-65
2022/12/05 08:21:31;;;;;;;9.27;6.22;;;4.80;97.80;;;;;;4957609;29;20194;-65
2022/12/05 08:23:58;;;;;;;11.70;6.57;;;4.80;97.70;;;;;;4957104;29;20197;-66
2022/12/05 08:26:28;;;;;;;9.10;6.30;;;4.80;97.70;;;;;;4957596;29;20201;-66
2022/12/05 08:28:57;;;;;;;9.10;6.50;;;4.80;97.90;;;;;;4957510;29;20542;-65
2022/12/05 08:31:26;;;;;;;9.18;6.30;;;4.80;98.10;;;;;;4957376;29;20201;-65
2022/12/05 08:33:53;;;;;;;7.82;5.88;;;4.80;98.20;;;;;;4957198;29;20720;-66
2022/12/05 08:36:20;;;;;;;7.68;6.05;;;4.80;98.40;;;;;;4957469;29;20276;-66
2022/12/05 08:38:47;;;;;;;9.38;6.85;;;4.90;98.30;;;;;;4957287;29;20248;-66
2022/12/05 08:41:17;;;;;;;9.00;6.47;;;5.00;98.30;;;;;;4957172;29;20241;-66
2022/12/05 08:43:45;;;;;;;9.90;6.55;;;5.00;98.20;;;;;;4957117;29;20190;-66
2022/12/05 08:46:13;;;;;;;7.10;5.28;;;5.10;98.20;;;;;;4957174;29;20202;-65
2022/12/05 08:48:40;;;;;;;8.85;6.93;;;5.20;98.00;;;;;;4957235;29;20198;-66
2022/12/05 08:51:09;;;;;;;8.13;5.60;;;5.30;97.90;;;;;;4956990;29;20245;-65
2022/12/05 08:53:36;;;;;;;6.85;5.20;;;5.30;97.90;;;;;;4955971;28;20240;-66
2022/12/05 08:56:05;;;;;;;7.53;6.18;;;5.40;97.90;;;;;;4957028;29;20221;-66
2022/12/05 08:58:32;;;;;;;8.27;6.53;;;5.50;97.80;;;;;;4957169;29;20221;-65
2022/12/05 09:01:07;;;;;;;8.98;7.65;;;5.60;97.80;;;;;;4956945;29;20225;-65
2022/12/05 09:03:34;;;;;;;7.32;5.93;;;5.60;97.50;;;;;;4956888;29;20244;-65
2022/12/05 09:06:07;;;;;;;8.70;6.68;;;5.70;97.30;;;;;;4956577;29;20230;-66
2022/12/05 09:08:34;;;;;;;8.82;5.97;;;5.70;97.20;;;;;;4956879;29;20619;-65
2022/12/05 09:11:05;;;;;;;8.35;5.60;;;5.80;97.10;;;;;;4956847;29;20189;-66
2022/12/05 09:13:37;;;;;;;8.27;6.95;;;5.90;96.90;;;;;;4956637;29;20207;-65
2022/12/05 09:16:09;;;;;;;9.23;8.13;;;5.90;96.90;;;;;;4956247;29;20288;-66
2022/12/05 09:18:36;;;;;;;8.27;6.53;;;6.00;96.70;;;;;;4956667;29;20229;-66
2022/12/05 09:21:07;;;;;;;9.32;6.20;;;6.00;96.90;;;;;;4956520;29;20201;-65
2022/12/05 09:23:36;;;;;;;10.35;5.90;;;6.00;96.40;;;;;;4956493;29;20198;-65
2022/12/05 09:26:04;;;;;;;6.80;4.95;;;6.00;96.20;;;;;;4956464;29;20662;-66
2022/12/05 09:28:31;;;;;;;8.88;5.47;;;6.00;96.10;;;;;;4955950;29;20656;-65
2022/12/05 09:31:00;;;;;;;9.30;5.57;;;6.00;96.10;;;;;;4956452;29;20204;-66
2022/12/05 09:33:29;;;;;;;10.60;5.38;;;6.00;96.20;;;;;;4956527;29;20198;-65
2022/12/05 09:35:56;;;;;;;8.23;5.85;;;5.90;96.30;;;;;;4955951;29;20217;-66
2022/12/05 09:38:23;;;;;;;6.75;4.55;;;5.90;96.40;;;;;;4956341;29;20641;-66
2022/12/05 09:41:00;;;;;;;7.72;5.82;;;5.90;96.70;;;;;;4956566;29;20268;-66
2022/12/05 09:43:34;;;;;;;8.02;6.70;;;5.90;96.80;;;;;;4956387;29;20225;-66
2022/12/05 09:46:08;;;;;;;11.23;9.15;;;6.00;96.90;;;;;;4956016;29;20186;-66
2022/12/05 09:48:39;;;;;;;8.57;6.28;;;6.00;96.90;;;;;;4955906;29;20268;-65
2022/12/05 09:51:10;;;;;;;9.20;6.57;;;6.10;96.80;;;;;;4956145;29;20641;-66
2022/12/05 09:53:40;;;;;;;8.05;6.65;;;6.10;96.50;;;;;;4956115;29;20198;-66
2022/12/05 09:56:18;;;;;;;9.77;6.60;;;6.10;96.60;;;;;;4955783;29;20210;-66
2022/12/05 09:58:51;;;;;;;7.90;5.72;;;6.20;96.70;;;;;;4956185;29;20194;-66
2022/12/05 10:01:26;;;;;;;6.47;5.18;;;6.20;96.50;;;;;;4955977;29;20286;-66
2022/12/05 10:04:07;;;;;;;7.20;5.70;;;6.20;96.20;;;;;;4955566;28;20533;-66
2022/12/05 10:06:41;;;;;;;7.63;4.95;;;6.20;96.30;;;;;;4955770;29;20256;-66
2022/12/05 10:09:24;;;;;;;7.40;5.88;;;6.20;96.30;;;;;;4955878;29;20520;-67
2022/12/05 10:11:59;;;;;;;6.05;4.50;;;6.30;96.30;;;;;;4955529;29;20190;-66
2022/12/05 10:14:34;;;;;;;7.93;5.65;;;6.30;96.30;;;;;;4955501;29;20197;-66
2022/12/05 10:17:15;;;;;;;7.72;5.40;;;6.30;96.20;;;;;;4955672;29;20267;-66
2022/12/05 10:19:47;;;;;;;9.48;6.13;;;6.40;96.20;;;;;;4955574;29;20322;-66
2022/12/05 10:22:18;;;;;;;6.65;5.03;;;6.40;96.30;;;;;;4955488;29;20194;-66
2022/12/05 10:24:52;;;;;;;7.70;5.22;;;6.50;96.30;;;;;;4955404;29;20241;-65
2022/12/05 10:27:22;;;;;;;10.65;5.47;;;6.60;96.20;;;;;;4955668;29;20252;-66
2022/12/05 10:29:58;;;;;;;7.20;6.15;;;6.60;96.10;;;;;;4955633;29;20194;-66
2022/12/05 10:32:31;;;;;;;11.43;8.52;;;6.70;96.00;;;;;;4955256;29;20272;-66
2022/12/05 10:35:12;;;;;;;12.50;7.60;;;6.70;95.80;;;;;;4954844;29;20661;-65
2022/12/05 10:37:48;;;;;;;12.35;9.27;;;6.80;95.70;;;;;;4955178;29;20288;-66
2022/12/05 10:40:15;;;;;;;8.68;7.55;;;6.80;95.60;;;;;;4955197;29;20197;-65
2022/12/05 10:42:43;;;;;;;10.80;7.68;;;6.90;95.50;;;;;;4954880;29;20605;-65
2022/12/05 10:45:16;;;;;;;7.43;5.95;;;6.90;95.50;;;;;;4955171;29;20225;-64
2022/12/05 10:47:43;;;;;;;9.77;5.63;;;7.00;95.40;;;;;;4955248;29;20224;-65
2022/12/05 10:50:22;;;;;;;7.40;4.85;;;7.00;95.20;;;;;;4954974;29;20308;-65
2022/12/05 10:52:49;;;;;;;4.90;3.60;;;7.10;95.10;;;;;;4955111;29;20652;-64
2022/12/05 10:55:18;;;;;;;4.85;3.58;;;7.10;94.90;;;;;;4955121;29;20648;-65
2022/12/05 10:57:50;;;;;;;6.55;3.13;;;7.10;94.70;;;;;;4954893;29;20537;-65
2022/12/05 11:00:24;;;;;;;4.93;3.25;;;7.10;94.40;;;;;;4954467;29;20194;-65
2022/12/05 11:02:51;;;;;;;4.97;3.50;;;7.10;94.20;;;;;;4955208;29;20194;-65
2022/12/05 11:05:30;;;;;;;4.03;2.80;;;7.20;94.00;;;;;;4954740;29;20225;-65
2022/12/05 11:07:58;;;;;;;5.10;3.85;;;7.20;94.00;;;;;;4954686;29;20189;-65
2022/12/05 11:10:30;;;;;;;3.22;2.28;;;7.20;94.00;;;;;;4954789;29;20198;-65
2022/12/05 11:12:59;;;;;;;5.13;2.20;;;7.20;93.80;;;;;;4954654;29;20691;-65
2022/12/05 11:15:28;;;;;;;3.90;2.20;;;7.20;93.50;;;;;;4954788;28;20197;-65
2022/12/05 11:17:57;;;;;;;2.85;2.25;;;7.20;93.30;;;;;;4954548;29;20276;-65
2022/12/05 11:20:39;;;;;;;3.30;2.20;;;7.20;93.10;;;;;;4955003;29;20198;-65
2022/12/05 11:23:27;;;;;;;3.42;1.92;;;7.30;93.00;;;;;;4954819;29;20201;-65
2022/12/05 11:25:55;;;;;;;3.70;2.50;;;7.30;93.00;;;;;;4954201;29;20244;-65
2022/12/05 11:28:35;;;;;;;2.47;1.70;;;7.30;92.70;;;;;;4954764;29;20197;-65
2022/12/05 11:31:04;;;;;;;3.40;1.70;;;7.40;92.60;;;;;;4954789;29;20585;-65
2022/12/05 11:33:32;;;;;;;3.42;2.20;;;7.40;92.40;;;;;;4954610;29;20253;-65
2022/12/05 11:36:05;;;;;;;3.80;1.90;;;7.40;92.00;;;;;;4954782;29;20256;-65
2022/12/05 11:38:33;;;;;;;5.13;3.42;;;7.40;91.80;;;;;;4954592;29;20212;-65
2022/12/05 11:41:17;;;;;;;8.07;4.13;;;7.40;91.60;;;;;;4954420;29;20711;-65
2022/12/05 11:43:57;;;;;;;5.25;4.13;;;7.30;91.30;;;;;;4954459;29;20190;-65
2022/12/05 11:46:35;;;;;;;4.25;2.45;;;7.40;91.10;;;;;;4954547;29;20322;-64
2022/12/05 11:49:24;;;;;;;4.28;2.35;;;7.40;91.20;;;;;;4954393;29;20248;-66
2022/12/05 11:52:04;;;;;;;3.28;2.10;;;7.40;90.90;;;;;;4954607;29;20322;-65
2022/12/05 11:54:53;;;;;;;2.67;1.55;;;7.40;90.80;;;;;;4954367;29;20541;-65
2022/12/05 11:57:41;;;;;;;2.65;1.65;;;7.40;90.60;;;;;;4954484;29;20222;-65
2022/12/05 12:00:19;;;;;;;3.00;1.70;;;7.30;90.40;;;;;;4953958;29;20245;-65
2022/12/05 12:03:15;;;;;;;3.67;2.20;;;7.30;90.30;;;;;;4950291;28;20217;-65
2022/12/05 12:05:50;;;;;;;4.07;1.90;;;7.30;90.40;;;;;;4953255;29;20236;-65
2022/12/05 12:08:24;;;;;;;2.70;1.55;;;7.30;90.40;;;;;;4953020;29;20327;-64
2022/12/05 12:11:02;;;;;;;2.70;1.63;;;7.20;90.30;;;;;;4953391;29;20201;-64
2022/12/05 12:13:43;;;;;;;4.63;3.00;;;7.30;90.20;;;;;;4952698;29;20213;-65
2022/12/05 12:16:17;;;;;;;3.17;2.17;;;7.30;90.10;;;;;;4953198;29;20193;-65
2022/12/05 12:19:08;;;;;;;4.82;3.00;;;7.30;90.00;;;;;;4952091;29;20200;-64
2022/12/05 12:21:47;;;;;;;3.95;1.65;;;7.30;89.70;;;;;;4953562;29;20235;-65
2022/12/05 12:24:27;;;;;;;4.20;2.60;;;7.20;89.30;;;;;;4953112;29;20196;-65
2022/12/05 12:27:05;;;;;;;4.10;1.30;;;7.10;88.40;;;;;;4951676;29;20194;-65
2022/12/05 12:29:47;;;;;;;10.52;7.57;;;7.10;88.90;;;;;;4954852;29;20193;-65
2022/12/05 12:32:29;;;;;;;4.60;2.63;;;7.00;89.10;;;;;;4963238;28;20552;-65
2022/12/05 12:35:13;;;;;;;6.30;3.30;;;7.00;88.70;;;;;;4956255;29;20197;-64
2022/12/05 12:37:49;;;;;;;3.35;2.33;;;6.90;88.10;;;;;;4956385;29;20221;-64
2022/12/05 12:40:22;;;;;;;2.67;1.50;;;7.00;88.80;;;;;;4956512;29;20260;-64
2022/12/05 12:43:03;;;;;;;12.07;7.35;;;6.90;88.80;;;;;;4956677;29;20201;-65
2022/12/05 12:45:55;;;;;;;2.95;2.35;;;7.00;89.30;;;;;;4956793;29;20205;-64
2022/12/05 12:48:41;;;;;;;2.60;1.40;;;7.00;89.60;;;;;;4956646;29;20186;-64
2022/12/05 12:51:12;;;;;;;2.13;1.05;;;7.00;89.70;;;;;;4955752;29;20649;-65
2022/12/05 12:54:11;;;;;;;2.13;0.90;;;7.00;89.70;;;;;;4955739;29;20213;-64
2022/12/05 12:56:48;;;;;;;2.22;1.15;;;6.90;89.60;;;;;;4956286;29;20194;-64
2022/12/05 12:59:31;;;;;;;2.60;1.15;;;6.90;88.80;;;;;;4954144;29;20197;-64
2022/12/05 13:02:04;;;;;;;2.60;1.23;;;6.80;87.70;;;;;;4956540;29;20253;-64
2022/12/05 13:04:39;;;;;;;2.30;1.20;;;6.70;87.90;;;;;;4953295;29;20218;-64
2022/12/05 13:07:13;;;;;;;2.15;1.13;;;6.70;87.40;;;;;;4956755;29;20200;-64
2022/12/05 13:09:43;;;;;;;3.28;1.20;;;6.70;87.90;;;;;;4956913;29;20580;-65
2022/12/05 13:12:15;;;;;;;3.33;1.40;;;6.70;88.10;;;;;;4956276;29;20597;-65
2022/12/05 13:14:49;;;;;;;4.05;1.33;;;6.70;88.10;;;;;;4955828;29;20560;-64
2022/12/05 13:17:20;;;;;;;3.50;1.30;;;6.60;87.20;;;;;;4956876;29;20363;-64
2022/12/05 13:19:49;;;;;;;2.10;1.10;;;6.60;87.60;;;;;;4956678;29;20190;-64
2022/12/05 13:22:18;;;;;;;3.58;1.60;;;6.60;87.70;;;;;;4956823;29;20537;-65
2022/12/05 13:24:46;;;;;;;2.40;1.05;;;6.50;87.90;;;;;;4956717;29;20225;-64